createdAt,value
2022-09-23T00:00:06.457Z,38.00
2022-09-23T00:00:28.153Z,37.84
2022-09-23T00:00:49.749Z,37.69
2022-09-23T00:01:11.670Z,37.36
2022-09-23T00:01:34.688Z,37.25
2022-09-23T00:01:56.913Z,37.14
2022-09-23T00:02:18.564Z,37.19
2022-09-23T00:02:40.774Z,37.11
2022-09-23T00:03:03.485Z,37.53
2022-09-23T00:03:25.105Z,38.03
2022-09-23T00:03:47.242Z,37.64
2022-09-23T00:04:10.273Z,37.75
2022-09-23T00:04:32.785Z,38.04
2022-09-23T00:04:54.317Z,38.99
2022-09-23T00:05:16.035Z,38.85
2022-09-23T00:05:38.235Z,38.80
2022-09-23T00:06:02.225Z,38.56
2022-09-23T00:06:24.392Z,38.63
2022-09-23T00:06:46.003Z,38.59
2022-09-23T00:07:07.754Z,38.53
2022-09-23T00:07:30.325Z,38.46
2022-09-23T00:07:51.945Z,38.69
2022-09-23T00:08:13.557Z,38.61
2022-09-23T00:08:35.161Z,38.50
2022-09-23T00:08:56.773Z,38.68
2022-09-23T00:09:19.345Z,38.17
2022-09-23T00:09:40.905Z,38.08
2022-09-23T00:10:02.629Z,37.54
2022-09-23T00:10:25.737Z,37.63
2022-09-23T00:10:48.290Z,37.49
2022-09-23T00:11:12.517Z,37.46
2022-09-23T00:11:34.063Z,37.31
2022-09-23T00:11:55.669Z,37.37
2022-09-23T00:12:18.345Z,37.68
2022-09-23T00:12:39.983Z,37.71
2022-09-23T00:13:01.609Z,38.02
2022-09-23T00:13:23.630Z,37.67
2022-09-23T00:13:47.405Z,38.00
2022-09-23T00:14:10.842Z,38.14
2022-09-23T00:14:32.681Z,38.52
2022-09-23T00:14:54.352Z,38.54
2022-09-23T00:15:16.989Z,38.03
2022-09-23T00:15:39.414Z,37.94
2022-09-23T00:16:04.631Z,38.29
2022-09-23T00:16:29.189Z,38.35
2022-09-23T00:16:50.905Z,37.89
2022-09-23T00:17:12.611Z,37.74
2022-09-23T00:17:35.237Z,37.48
2022-09-23T00:17:57.192Z,37.38
2022-09-23T00:18:20.485Z,37.63
2022-09-23T00:18:42.452Z,37.46
2022-09-23T00:19:05.667Z,37.57
2022-09-23T00:19:29.933Z,37.38
2022-09-23T00:19:51.729Z,37.57
2022-09-23T00:20:14.163Z,37.38
2022-09-23T00:20:36.213Z,37.70
2022-09-23T00:20:58.809Z,37.61
2022-09-23T00:21:21.938Z,37.61
2022-09-23T00:21:43.632Z,37.75
2022-09-23T00:22:06.164Z,38.27
2022-09-23T00:22:27.794Z,38.11
2022-09-23T00:22:49.504Z,37.93
2022-09-23T00:23:11.320Z,37.70
2022-09-23T00:23:35.081Z,37.51
2022-09-23T00:23:56.882Z,37.73
2022-09-23T00:24:19.625Z,37.70
2022-09-23T00:24:42.229Z,37.86
2022-09-23T00:25:04.397Z,37.72
2022-09-23T00:25:29.561Z,37.93
2022-09-23T00:25:56.176Z,38.53
2022-09-23T00:26:20.405Z,38.87
2022-09-23T00:26:43.188Z,38.80
2022-09-23T00:27:05.288Z,38.92
2022-09-23T00:27:26.862Z,39.25
2022-09-23T00:27:48.516Z,38.85
2022-09-23T00:28:11.010Z,38.41
2022-09-23T00:28:33.096Z,38.28
2022-09-23T00:28:55.176Z,38.14
2022-09-23T00:29:16.891Z,38.11
2022-09-23T00:29:39.488Z,38.06
2022-09-23T00:30:01.337Z,37.59
2022-09-23T00:30:23.622Z,37.79
2022-09-23T00:30:45.581Z,37.99
2022-09-23T00:31:09.020Z,37.90
2022-09-23T00:31:31.756Z,37.80
2022-09-23T00:31:53.403Z,37.83
2022-09-23T00:32:14.971Z,37.99
2022-09-23T00:32:37.777Z,38.37
2022-09-23T00:33:00.355Z,38.21
2022-09-23T00:33:22.044Z,37.97
2022-09-23T00:33:44.107Z,37.68
2022-09-23T00:34:06.688Z,37.80
2022-09-23T00:34:29.704Z,37.94
2022-09-23T00:34:52.392Z,37.70
2022-09-23T00:36:12.519Z,38.06
2022-09-23T00:36:34.402Z,37.96
2022-09-23T00:36:56.823Z,38.07
2022-09-23T00:37:19.095Z,38.03
2022-09-23T00:37:41.736Z,37.83
2022-09-23T00:38:03.317Z,37.73
2022-09-23T00:38:24.939Z,37.70
2022-09-23T00:38:46.830Z,37.84
2022-09-23T00:39:09.750Z,37.91
2022-09-23T00:39:33.024Z,37.93
2022-09-23T00:39:55.502Z,37.72
2022-09-23T00:40:17.279Z,37.85
2022-09-23T00:40:44.037Z,37.69
2022-09-23T00:41:06.383Z,37.74
2022-09-23T00:41:28.172Z,37.79
2022-09-23T00:41:50.106Z,38.05
2022-09-23T00:42:16.263Z,38.01
2022-09-23T00:42:37.839Z,37.71
2022-09-23T00:42:59.656Z,37.84
2022-09-23T00:43:38.261Z,37.74
2022-09-23T00:44:02.206Z,37.91
2022-09-23T00:44:43.416Z,38.07
2022-09-23T00:45:07.730Z,38.58
2022-09-23T00:45:31.012Z,39.08
2022-09-23T00:45:52.890Z,39.11
2022-09-23T00:46:18.580Z,38.72
2022-09-23T00:46:43.531Z,38.82
2022-09-23T00:47:06.192Z,38.61
2022-09-23T00:47:34.242Z,38.51
2022-09-23T00:48:01.382Z,39.35
2022-09-23T00:48:23.889Z,39.30
2022-09-23T00:48:46.468Z,39.25
2022-09-23T00:49:12.705Z,38.32
2022-09-23T00:49:35.648Z,37.99
2022-09-23T00:50:06.542Z,37.99
2022-09-23T00:50:30.885Z,37.92
2022-09-23T00:50:54.597Z,38.16
2022-09-23T00:51:21.086Z,38.14
2022-09-23T00:51:48.967Z,37.88
2022-09-23T00:52:15.284Z,38.24
2022-09-23T00:52:37.578Z,38.38
2022-09-23T00:53:03.477Z,37.99
2022-09-23T00:53:26.701Z,38.26
2022-09-23T00:53:51.200Z,38.66
2022-09-23T00:54:13.099Z,38.22
2022-09-23T00:54:35.213Z,38.22
2022-09-23T00:55:00.433Z,38.71
2022-09-23T00:55:26.165Z,38.72
2022-09-23T00:55:50.236Z,39.17
2022-09-23T00:56:13.557Z,39.24
2022-09-23T00:56:37.477Z,38.92
2022-09-23T00:57:00.219Z,38.62
2022-09-23T00:57:23.669Z,38.41
2022-09-23T00:57:47.277Z,38.38
2022-09-23T00:58:12.880Z,38.47
2022-09-23T00:58:37.247Z,39.23
2022-09-23T00:59:01.003Z,39.54
2022-09-23T00:59:24.392Z,39.05
2022-09-23T00:59:47.153Z,39.41
2022-09-23T01:00:10.685Z,39.15
2022-09-23T01:00:33.683Z,39.41
2022-09-23T01:00:55.483Z,39.38
2022-09-23T01:01:18.574Z,39.29
2022-09-23T01:01:40.755Z,39.33
2022-09-23T01:02:04.681Z,39.17
2022-09-23T01:02:28.121Z,39.00
2022-09-23T01:02:50.144Z,39.07
2022-09-23T01:03:13.903Z,38.89
2022-09-23T01:03:35.824Z,38.87
2022-09-23T01:03:58.424Z,39.13
2022-09-23T01:04:20.677Z,39.02
2022-09-23T01:04:44.597Z,38.87
2022-09-23T01:05:07.917Z,38.88
2022-09-23T01:05:29.862Z,38.40
2022-09-23T01:05:52.251Z,38.24
2022-09-23T01:06:15.156Z,38.72
2022-09-23T01:06:36.722Z,38.83
2022-09-23T01:06:58.411Z,38.92
2022-09-23T01:07:20.491Z,39.26
2022-09-23T01:07:43.667Z,39.12
2022-09-23T01:08:08.185Z,38.98
2022-09-23T01:08:31.113Z,39.07
2022-09-23T01:08:53.093Z,39.27
2022-09-23T01:09:14.825Z,39.70
2022-09-23T01:09:37.843Z,39.78
2022-09-23T01:10:00.907Z,39.47
2022-09-23T01:10:23.924Z,39.22
2022-09-23T01:10:56.558Z,38.65
2022-09-23T01:11:34.992Z,38.67
2022-09-23T01:12:03.538Z,39.33
2022-09-23T01:12:42.167Z,39.32
2022-09-23T01:13:15.881Z,39.01
2022-09-23T01:13:47.532Z,38.66
2022-09-23T01:14:32.048Z,39.45
2022-09-23T01:15:03.678Z,39.45
2022-09-23T01:15:32.418Z,39.24
2022-09-23T01:16:04.931Z,39.13
2022-09-23T01:16:34.564Z,38.68
2022-09-23T01:17:03.939Z,39.13
2022-09-23T01:17:33.501Z,38.80
2022-09-23T01:18:07.324Z,38.42
2022-09-23T01:18:39.140Z,38.58
2022-09-23T01:19:10.285Z,38.68
2022-09-23T01:20:01.086Z,38.68
2022-09-23T01:20:41.912Z,39.16
2022-09-23T01:21:18.316Z,38.88
2022-09-23T01:21:53.501Z,39.04
2022-09-23T01:22:29.319Z,39.47
2022-09-23T01:23:03.705Z,39.41
2022-09-23T01:24:02.284Z,39.15
2022-09-23T01:24:45.918Z,40.06
2022-09-23T01:25:27.213Z,39.93
2022-09-23T01:26:07.981Z,39.47
2022-09-23T01:26:49.547Z,39.64
2022-09-23T01:27:18.027Z,39.72
2022-09-23T01:27:59.922Z,40.05
2022-09-23T01:28:42.494Z,39.53
2022-09-23T01:29:34.225Z,40.07
2022-09-23T01:30:08.064Z,39.93
2022-09-23T01:30:51.249Z,39.69
2022-09-23T01:31:19.742Z,39.93
2022-09-23T01:31:48.882Z,39.77
2022-09-23T01:32:17.948Z,39.72
2022-09-23T01:32:58.435Z,39.66
2022-09-23T01:33:26.199Z,40.00
2022-09-23T01:33:56.417Z,40.01
2022-09-23T01:34:26.437Z,39.96
2022-09-23T01:34:53.493Z,39.89
2022-09-23T01:35:24.976Z,39.48
2022-09-23T01:36:03.739Z,39.28
2022-09-23T01:36:32.416Z,39.67
2022-09-23T01:36:58.929Z,39.45
2022-09-23T01:37:28.578Z,39.76
2022-09-23T01:37:57.675Z,39.42
2022-09-23T01:38:26.812Z,39.25
2022-09-23T01:38:59.017Z,39.29
2022-09-23T01:39:29.685Z,39.26
2022-09-23T01:40:03.378Z,38.81
2022-09-23T01:40:33.959Z,38.96
2022-09-23T01:41:03.344Z,39.19
2022-09-23T01:41:49.171Z,39.02
2022-09-23T01:42:17.573Z,38.91
2022-09-23T01:42:42.921Z,38.86
2022-09-23T01:43:09.906Z,38.93
2022-09-23T01:43:41.624Z,39.14
2022-09-23T01:44:09.152Z,39.42
2022-09-23T01:44:39.109Z,39.16
2022-09-23T01:45:07.064Z,38.77
2022-09-23T01:45:34.018Z,38.87
2022-09-23T01:46:00.304Z,38.79
2022-09-23T01:46:27.880Z,38.88
2022-09-23T01:46:54.785Z,38.99
2022-09-23T01:47:21.690Z,39.42
2022-09-23T01:47:51.625Z,39.74
2022-09-23T01:48:19.132Z,40.16
2022-09-23T01:48:47.518Z,40.07
2022-09-23T01:49:16.512Z,40.06
2022-09-23T01:49:46.131Z,39.59
2022-09-23T01:50:26.789Z,39.90
2022-09-23T01:50:58.578Z,39.71
2022-09-23T01:51:26.689Z,39.63
2022-09-23T01:51:53.935Z,39.97
2022-09-23T01:52:22.609Z,39.93
2022-09-23T01:52:48.118Z,40.11
2022-09-23T01:53:14.851Z,40.27
2022-09-23T01:53:43.420Z,40.13
2022-09-23T01:54:11.469Z,40.13
2022-09-23T01:54:39.217Z,40.04
2022-09-23T01:55:08.562Z,39.86
2022-09-23T01:55:34.056Z,40.03
2022-09-23T01:56:00.283Z,40.02
2022-09-23T01:56:26.534Z,39.89
2022-09-23T01:56:54.128Z,40.06
2022-09-23T01:57:22.615Z,40.00
2022-09-23T01:57:50.160Z,39.87
2022-09-23T01:58:17.088Z,40.20
2022-09-23T01:58:45.485Z,40.04
2022-09-23T01:59:13.894Z,39.91
2022-09-23T01:59:40.071Z,40.01
2022-09-23T02:00:06.693Z,40.09
2022-09-23T02:00:38.009Z,40.22
2022-09-23T02:01:04.168Z,39.89
2022-09-23T02:01:37.576Z,40.10
2022-09-23T02:02:04.094Z,40.11
2022-09-23T02:02:33.424Z,39.95
2022-09-23T02:03:00.344Z,39.64
2022-09-23T02:03:27.328Z,39.75
2022-09-23T02:03:55.584Z,39.75
2022-09-23T02:04:24.000Z,39.32
2022-09-23T02:04:50.353Z,39.25
2022-09-23T02:05:18.279Z,39.55
2022-09-23T02:05:45.748Z,39.77
2022-09-23T02:06:12.466Z,39.35
2022-09-23T02:06:39.711Z,39.10
2022-09-23T02:07:06.152Z,39.43
2022-09-23T02:07:34.069Z,39.70
2022-09-23T02:07:59.812Z,39.73
2022-09-23T02:08:25.618Z,39.42
2022-09-23T02:08:54.500Z,39.28
2022-09-23T02:09:22.221Z,39.24
2022-09-23T02:09:48.977Z,39.22
2022-09-23T02:10:14.030Z,39.12
2022-09-23T02:10:42.040Z,39.04
2022-09-23T02:11:08.176Z,39.07
2022-09-23T02:11:36.289Z,39.26
2022-09-23T02:12:04.753Z,39.31
2022-09-23T02:12:29.953Z,39.78
2022-09-23T02:12:54.813Z,40.07
2022-09-23T02:13:20.933Z,40.01
2022-09-23T02:13:50.820Z,39.93
2022-09-23T02:14:16.757Z,39.66
2022-09-23T02:14:44.023Z,39.63
2022-09-23T02:15:12.237Z,39.29
2022-09-23T02:15:38.066Z,39.44
2022-09-23T02:16:08.470Z,39.51
2022-09-23T02:16:34.233Z,39.32
2022-09-23T02:17:02.685Z,39.38
2022-09-23T02:17:28.984Z,39.38
2022-09-23T02:17:52.896Z,39.38
2022-09-23T02:18:19.337Z,39.44
2022-09-23T02:18:46.065Z,39.63
2022-09-23T02:19:14.313Z,39.44
2022-09-23T02:19:41.753Z,39.52
2022-09-23T02:20:05.856Z,39.47
2022-09-23T02:20:30.921Z,39.93
2022-09-23T02:21:00.296Z,39.96
2022-09-23T02:21:26.993Z,40.28
2022-09-23T02:21:52.384Z,39.92
2022-09-23T02:22:20.505Z,39.68
2022-09-23T02:22:51.965Z,39.46
2022-09-23T02:23:19.158Z,39.65
2022-09-23T02:23:44.937Z,39.93
2022-09-23T02:24:12.258Z,40.30
2022-09-23T02:24:37.520Z,40.71
2022-09-23T02:24:59.208Z,40.67
2022-09-23T02:25:26.123Z,40.67
2022-09-23T02:25:55.375Z,40.69
2022-09-23T02:26:20.932Z,40.43
2022-09-23T02:26:50.100Z,40.23
2022-09-23T02:27:19.955Z,40.35
2022-09-23T02:27:48.677Z,40.03
2022-09-23T02:28:16.247Z,39.90
2022-09-23T02:28:49.142Z,39.74
2022-09-23T02:29:18.686Z,40.04
2022-09-23T02:29:49.271Z,39.79
2022-09-23T02:30:15.136Z,39.65
2022-09-23T02:30:45.056Z,39.95
2022-09-23T02:31:13.096Z,39.90
2022-09-23T02:31:40.452Z,40.13
2022-09-23T02:32:14.222Z,40.20
2022-09-23T02:32:47.071Z,40.11
2022-09-23T02:33:18.414Z,40.00
2022-09-23T02:33:48.635Z,40.29
2022-09-23T02:34:18.926Z,40.54
2022-09-23T02:34:46.313Z,40.38
2022-09-23T02:35:19.135Z,40.43
2022-09-23T02:35:49.110Z,40.51
2022-09-23T02:36:15.256Z,40.59
2022-09-23T02:36:44.772Z,40.30
2022-09-23T02:37:17.016Z,39.94
2022-09-23T02:37:43.813Z,39.92
2022-09-23T02:38:18.148Z,39.87
2022-09-23T02:38:46.174Z,39.95
2022-09-23T02:39:11.248Z,40.03
2022-09-23T02:39:42.137Z,40.31
2022-09-23T02:40:15.498Z,40.56
2022-09-23T02:40:41.796Z,40.80
2022-09-23T02:41:09.760Z,40.78
2022-09-23T02:41:39.731Z,40.63
2022-09-23T02:42:07.545Z,40.43
2022-09-23T02:42:39.245Z,40.55
2022-09-23T02:43:08.320Z,40.44
2022-09-23T02:43:36.077Z,40.15
2022-09-23T02:44:02.261Z,39.97
2022-09-23T02:44:24.245Z,39.86
2022-09-23T02:44:46.863Z,40.06
2022-09-23T02:45:09.009Z,39.90
2022-09-23T02:45:31.048Z,39.85
2022-09-23T02:45:52.719Z,40.00
2022-09-23T02:46:17.505Z,40.00
2022-09-23T02:46:39.492Z,40.18
2022-09-23T02:47:01.183Z,40.34
2022-09-23T02:47:28.002Z,40.31
2022-09-23T02:47:53.262Z,40.28
2022-09-23T02:48:21.159Z,40.47
2022-09-23T02:48:47.060Z,40.66
2022-09-23T02:49:11.510Z,40.33
2022-09-23T02:49:35.121Z,40.02
2022-09-23T02:49:56.824Z,39.94
2022-09-23T02:50:19.915Z,40.01
2022-09-23T02:50:41.541Z,39.95
2022-09-23T02:51:04.224Z,40.53
2022-09-23T02:51:25.864Z,40.77
2022-09-23T02:51:47.824Z,40.78
2022-09-23T02:52:13.538Z,40.73
2022-09-23T02:52:36.590Z,40.59
2022-09-23T02:52:59.357Z,40.72
2022-09-23T02:53:22.977Z,40.61
2022-09-23T02:53:46.414Z,40.42
2022-09-23T02:54:12.856Z,40.58
2022-09-23T02:54:35.340Z,40.66
2022-09-23T02:54:57.444Z,40.83
2022-09-23T02:55:24.626Z,40.55
2022-09-23T02:55:46.225Z,40.44
2022-09-23T02:56:16.055Z,40.50
2022-09-23T02:56:37.833Z,40.62
2022-09-23T02:57:02.623Z,40.63
2022-09-23T02:57:25.292Z,40.79
2022-09-23T02:57:48.186Z,40.90
2022-09-23T02:58:13.296Z,41.10
2022-09-23T02:58:35.897Z,41.58
2022-09-23T02:58:57.922Z,41.46
2022-09-23T02:59:21.606Z,41.22
2022-09-23T02:59:43.653Z,41.16
2022-09-23T03:00:08.823Z,41.35
2022-09-23T03:00:47.973Z,41.02
2022-09-23T03:01:18.899Z,40.68
2022-09-23T03:01:52.309Z,40.36
2022-09-23T03:02:31.959Z,40.30
2022-09-23T03:03:12.461Z,40.38
2022-09-23T03:03:43.485Z,40.58
2022-09-23T03:04:16.556Z,40.30
2022-09-23T03:04:47.325Z,40.04
2022-09-23T03:05:19.208Z,40.11
2022-09-23T03:05:50.022Z,40.55
2022-09-23T03:06:20.825Z,40.14
2022-09-23T03:06:53.138Z,40.26
2022-09-23T03:07:20.232Z,40.51
2022-09-23T03:07:49.360Z,40.60
2022-09-23T03:08:29.122Z,40.53
2022-09-23T03:08:58.621Z,40.40
2022-09-23T03:09:24.897Z,40.80
2022-09-23T03:09:55.031Z,40.79
2022-09-23T03:10:22.777Z,40.87
2022-09-23T03:10:57.043Z,40.63
2022-09-23T03:11:21.540Z,40.42
2022-09-23T03:11:50.434Z,40.47
2022-09-23T03:12:21.471Z,40.71
2022-09-23T03:12:52.908Z,40.50
2022-09-23T03:13:26.109Z,40.19
2022-09-23T03:14:16.783Z,40.11
2022-09-23T03:14:44.392Z,40.38
2022-09-23T03:15:19.012Z,40.61
2022-09-23T03:15:51.719Z,40.84
2022-09-23T03:16:27.682Z,41.21
2022-09-23T03:16:56.136Z,41.08
2022-09-23T03:17:25.758Z,40.46
2022-09-23T03:17:52.701Z,40.73
2022-09-23T03:18:20.365Z,40.78
2022-09-23T03:18:48.184Z,40.56
2022-09-23T03:19:21.318Z,40.18
2022-09-23T03:19:48.574Z,40.19
2022-09-23T03:20:15.264Z,40.29
2022-09-23T03:20:43.383Z,40.07
2022-09-23T03:21:08.483Z,40.51
2022-09-23T03:21:36.103Z,40.67
2022-09-23T03:22:02.308Z,40.93
2022-09-23T03:22:29.844Z,40.57
2022-09-23T03:22:55.716Z,40.68
2022-09-23T03:23:23.831Z,40.97
2022-09-23T03:23:47.463Z,40.77
2022-09-23T03:24:14.255Z,40.80
2022-09-23T03:24:38.107Z,40.52
2022-09-23T03:25:07.041Z,40.50
2022-09-23T03:25:33.192Z,40.65
2022-09-23T03:25:59.947Z,40.17
2022-09-23T03:26:28.461Z,40.11
2022-09-23T03:26:51.928Z,40.36
2022-09-23T03:27:17.708Z,40.33
2022-09-23T03:27:42.350Z,40.25
2022-09-23T03:28:08.036Z,40.17
2022-09-23T03:28:30.863Z,39.95
2022-09-23T03:28:53.293Z,40.15
2022-09-23T03:29:16.827Z,40.29
2022-09-23T03:29:39.414Z,40.34
2022-09-23T03:30:02.546Z,40.33
2022-09-23T03:30:24.719Z,40.25
2022-09-23T03:30:46.879Z,40.24
2022-09-23T03:31:08.553Z,40.18
2022-09-23T03:31:34.153Z,40.32
2022-09-23T03:31:57.202Z,40.54
2022-09-23T03:32:21.836Z,40.43
2022-09-23T03:32:46.980Z,40.21
2022-09-23T03:33:14.459Z,40.13
2022-09-23T03:33:41.491Z,40.23
2022-09-23T03:34:10.077Z,40.31
2022-09-23T03:34:36.318Z,40.50
2022-09-23T03:35:01.061Z,40.47
2022-09-23T03:35:27.336Z,40.58
2022-09-23T03:36:10.576Z,40.29
2022-09-23T03:36:51.581Z,40.32
2022-09-23T03:37:18.794Z,40.08
2022-09-23T03:37:47.365Z,40.28
2022-09-23T03:38:15.927Z,40.63
2022-09-23T03:38:43.078Z,40.76
2022-09-23T03:39:09.188Z,40.09
2022-09-23T03:39:35.323Z,40.24
2022-09-23T03:40:04.074Z,40.14
2022-09-23T03:40:31.428Z,40.29
2022-09-23T03:40:58.114Z,40.37
2022-09-23T03:41:28.341Z,40.91
2022-09-23T03:41:53.097Z,40.86
2022-09-23T03:42:20.227Z,40.75
2022-09-23T03:42:43.839Z,40.61
2022-09-23T03:43:05.732Z,40.95
2022-09-23T03:43:27.444Z,41.33
2022-09-23T03:43:49.628Z,41.26
2022-09-23T03:44:13.120Z,40.60
2022-09-23T03:44:39.235Z,40.79
2022-09-23T03:45:06.610Z,40.13
2022-09-23T03:45:32.996Z,40.11
2022-09-23T03:45:57.553Z,40.28
2022-09-23T03:46:19.431Z,40.38
2022-09-23T03:46:49.422Z,40.06
2022-09-23T03:47:14.526Z,39.94
2022-09-23T03:47:36.199Z,39.96
2022-09-23T03:47:57.880Z,39.94
2022-09-23T03:48:21.515Z,40.56
2022-09-23T03:48:45.210Z,40.79
2022-09-23T03:49:12.048Z,40.89
2022-09-23T03:49:37.160Z,40.89
2022-09-23T03:49:58.740Z,40.86
2022-09-23T03:50:21.525Z,40.88
2022-09-23T03:50:43.169Z,41.17
2022-09-23T03:51:19.484Z,41.32
2022-09-23T03:51:44.549Z,40.99
2022-09-23T03:52:07.688Z,40.62
2022-09-23T03:52:29.454Z,40.13
2022-09-23T03:52:51.195Z,40.45
2022-09-23T03:53:13.653Z,40.41
2022-09-23T03:53:36.188Z,40.10
2022-09-23T03:53:57.790Z,39.96
2022-09-23T03:54:20.301Z,40.05
2022-09-23T03:54:42.165Z,39.88
2022-09-23T03:55:05.203Z,40.17
2022-09-23T03:55:27.223Z,40.33
2022-09-23T03:55:48.827Z,40.03
2022-09-23T03:56:11.665Z,39.86
2022-09-23T03:56:34.239Z,39.86
2022-09-23T03:56:57.628Z,40.02
2022-09-23T03:57:21.965Z,40.22
2022-09-23T03:57:45.031Z,41.14
2022-09-23T03:58:08.620Z,41.11
2022-09-23T03:58:30.184Z,40.92
2022-09-23T03:58:51.720Z,40.90
2022-09-23T03:59:14.840Z,41.01
2022-09-23T03:59:37.587Z,40.48
2022-09-23T03:59:59.169Z,40.15
2022-09-23T04:00:20.745Z,40.70
2022-09-23T04:00:43.188Z,40.73
2022-09-23T04:01:06.198Z,40.80
2022-09-23T04:01:27.944Z,40.67
2022-09-23T04:01:51.363Z,40.17
2022-09-23T04:02:16.361Z,40.27
2022-09-23T04:02:38.163Z,40.27
2022-09-23T04:02:59.729Z,40.63
2022-09-23T04:03:22.271Z,40.78
2022-09-23T04:03:43.851Z,40.50
2022-09-23T04:04:06.482Z,40.40
2022-09-23T04:04:28.935Z,40.34
2022-09-23T04:04:50.501Z,40.33
2022-09-23T04:05:13.171Z,40.30
2022-09-23T04:05:36.506Z,40.22
2022-09-23T04:05:58.084Z,40.47
2022-09-23T04:06:19.689Z,41.08
2022-09-23T04:06:41.370Z,41.15
2022-09-23T04:07:04.570Z,40.84
2022-09-23T04:07:26.124Z,41.00
2022-09-23T04:07:48.406Z,40.92
2022-09-23T04:08:11.621Z,41.25
2022-09-23T04:08:33.258Z,41.40
2022-09-23T04:08:54.837Z,41.18
2022-09-23T04:09:16.865Z,41.32
2022-09-23T04:09:39.933Z,40.86
2022-09-23T04:10:01.755Z,40.56
2022-09-23T04:10:23.353Z,40.52
2022-09-23T04:10:46.839Z,40.17
2022-09-23T04:11:08.764Z,40.19
2022-09-23T04:11:31.309Z,40.12
2022-09-23T04:11:53.154Z,40.07
2022-09-23T04:12:16.238Z,39.83
2022-09-23T04:12:38.217Z,39.96
2022-09-23T04:13:00.732Z,40.06
2022-09-23T04:13:22.341Z,40.03
2022-09-23T04:13:43.916Z,40.47
2022-09-23T04:14:05.657Z,40.37
2022-09-23T04:14:28.353Z,40.25
2022-09-23T04:14:50.033Z,40.00
2022-09-23T04:15:11.911Z,40.03
2022-09-23T04:15:33.488Z,39.90
2022-09-23T04:15:55.443Z,40.05
2022-09-23T04:16:18.091Z,40.00
2022-09-23T04:16:39.789Z,40.31
2022-09-23T04:17:02.841Z,40.18
2022-09-23T04:17:24.638Z,40.31
2022-09-23T04:17:47.150Z,40.38
2022-09-23T04:18:08.727Z,40.38
2022-09-23T04:18:31.220Z,40.56
2022-09-23T04:18:52.843Z,40.99
2022-09-23T04:19:16.169Z,40.87
2022-09-23T04:19:38.260Z,40.42
2022-09-23T04:19:59.829Z,40.74
2022-09-23T04:20:21.394Z,40.78
2022-09-23T04:20:43.930Z,41.06
2022-09-23T04:21:05.864Z,41.22
2022-09-23T04:21:27.653Z,41.31
2022-09-23T04:21:49.350Z,40.99
2022-09-23T04:22:12.271Z,40.64
2022-09-23T04:22:33.952Z,40.86
2022-09-23T04:22:56.113Z,41.05
2022-09-23T04:23:17.707Z,41.02
2022-09-23T04:23:39.340Z,40.95
2022-09-23T04:24:02.271Z,40.41
2022-09-23T04:24:23.958Z,40.48
2022-09-23T04:24:45.572Z,40.26
2022-09-23T04:25:08.318Z,40.42
2022-09-23T04:25:31.665Z,40.40
2022-09-23T04:25:53.538Z,40.56
2022-09-23T04:26:15.167Z,40.83
2022-09-23T04:26:37.100Z,41.17
2022-09-23T04:26:58.765Z,41.16
2022-09-23T04:27:21.329Z,40.86
2022-09-23T04:27:42.976Z,41.00
2022-09-23T04:28:04.535Z,40.65
2022-09-23T04:28:26.197Z,40.62
2022-09-23T04:28:47.878Z,40.74
2022-09-23T04:29:11.941Z,40.83
2022-09-23T04:29:33.553Z,40.82
2022-09-23T04:29:55.170Z,40.90
2022-09-23T04:30:18.629Z,40.83
2022-09-23T04:30:43.638Z,40.62
2022-09-23T04:31:06.032Z,40.57
2022-09-23T04:31:28.897Z,40.36
2022-09-23T04:31:51.739Z,40.56
2022-09-23T04:32:15.767Z,41.07
2022-09-23T04:32:37.813Z,41.37
2022-09-23T04:32:59.427Z,41.41
2022-09-23T04:33:21.193Z,41.37
2022-09-23T04:33:42.875Z,40.79
2022-09-23T04:34:05.470Z,40.77
2022-09-23T04:34:27.545Z,41.28
2022-09-23T04:34:49.103Z,41.00
2022-09-23T04:35:10.697Z,41.36
2022-09-23T04:35:37.951Z,41.38
2022-09-23T04:36:02.137Z,40.99
2022-09-23T04:36:24.192Z,40.77
2022-09-23T04:36:47.929Z,40.83
2022-09-23T04:37:09.553Z,40.68
2022-09-23T04:37:31.219Z,41.24
2022-09-23T04:37:52.745Z,40.77
2022-09-23T04:38:15.257Z,40.66
2022-09-23T04:38:36.807Z,40.88
2022-09-23T04:38:58.380Z,40.63
2022-09-23T04:39:21.764Z,40.35
2022-09-23T04:39:43.407Z,40.11
2022-09-23T04:40:06.165Z,40.29
2022-09-23T04:40:27.789Z,40.61
2022-09-23T04:40:49.703Z,40.51
2022-09-23T04:41:12.751Z,40.22
2022-09-23T04:41:34.427Z,40.04
2022-09-23T04:41:56.010Z,40.30
2022-09-23T04:42:17.551Z,40.14
2022-09-23T04:42:39.121Z,40.24
2022-09-23T04:43:01.731Z,40.21
2022-09-23T04:43:23.591Z,40.48
2022-09-23T04:43:45.854Z,41.22
2022-09-23T04:44:07.618Z,41.24
2022-09-23T04:44:30.168Z,40.87
2022-09-23T04:44:51.734Z,40.67
2022-09-23T04:45:13.466Z,40.16
2022-09-23T04:45:35.143Z,40.42
2022-09-23T04:46:00.477Z,41.02
2022-09-23T04:46:23.045Z,41.00
2022-09-23T04:46:48.149Z,40.69
2022-09-23T04:47:10.003Z,40.38
2022-09-23T04:47:32.995Z,40.48
2022-09-23T04:47:58.008Z,40.27
2022-09-23T04:48:19.782Z,40.49
2022-09-23T04:48:41.738Z,40.53
2022-09-23T04:49:04.178Z,41.04
2022-09-23T04:49:26.855Z,40.75
2022-09-23T04:49:48.533Z,40.94
2022-09-23T04:50:10.135Z,40.81
2022-09-23T04:50:33.828Z,40.86
2022-09-23T04:51:03.204Z,40.24
2022-09-23T04:51:27.139Z,40.09
2022-09-23T04:51:48.742Z,40.08
2022-09-23T04:52:10.314Z,40.25
2022-09-23T04:52:32.874Z,40.28
2022-09-23T04:52:55.115Z,40.61
2022-09-23T04:53:17.217Z,40.99
2022-09-23T04:53:40.319Z,40.76
2022-09-23T04:54:02.884Z,40.78
2022-09-23T04:54:24.541Z,40.17
2022-09-23T04:54:46.114Z,40.06
2022-09-23T04:55:11.178Z,40.31
2022-09-23T04:55:33.069Z,40.16
2022-09-23T04:55:55.633Z,40.19
2022-09-23T04:56:19.099Z,40.40
2022-09-23T04:56:40.937Z,40.36
2022-09-23T04:57:02.550Z,40.63
2022-09-23T04:57:25.289Z,40.42
2022-09-23T04:57:47.148Z,40.58
2022-09-23T04:58:09.878Z,40.84
2022-09-23T04:58:31.702Z,40.86
2022-09-23T04:58:54.639Z,40.46
2022-09-23T04:59:16.660Z,41.15
2022-09-23T04:59:38.326Z,40.84
2022-09-23T05:00:00.076Z,40.77
2022-09-23T05:00:23.133Z,40.88
2022-09-23T05:00:44.784Z,41.07
2022-09-23T05:01:10.918Z,41.39
2022-09-23T05:01:34.417Z,41.31
2022-09-23T05:01:57.290Z,41.26
2022-09-23T05:02:19.064Z,41.14
2022-09-23T05:02:46.385Z,40.88
2022-09-23T05:03:08.023Z,40.44
2022-09-23T05:03:31.052Z,40.44
2022-09-23T05:03:54.496Z,40.77
2022-09-23T05:04:16.215Z,41.05
2022-09-23T05:04:38.003Z,41.14
2022-09-23T05:05:00.928Z,40.92
2022-09-23T05:05:24.097Z,41.11
2022-09-23T05:05:46.120Z,41.36
2022-09-23T05:06:09.331Z,41.11
2022-09-23T05:06:31.888Z,40.92
2022-09-23T05:06:53.677Z,40.43
2022-09-23T05:07:18.988Z,40.41
2022-09-23T05:07:42.058Z,40.63
2022-09-23T05:08:03.621Z,40.34
2022-09-23T05:08:25.209Z,40.42
2022-09-23T05:08:49.376Z,40.32
2022-09-23T05:09:16.540Z,40.58
2022-09-23T05:09:38.637Z,40.94
2022-09-23T05:10:00.230Z,40.70
2022-09-23T05:10:23.279Z,40.53
2022-09-23T05:10:45.954Z,40.28
2022-09-23T05:11:08.884Z,40.43
2022-09-23T05:11:31.287Z,40.56
2022-09-23T05:11:54.163Z,40.51
2022-09-23T05:12:15.724Z,40.71
2022-09-23T05:12:37.378Z,40.44
2022-09-23T05:12:58.983Z,40.38
2022-09-23T05:13:21.549Z,40.24
2022-09-23T05:13:43.100Z,40.01
2022-09-23T05:14:04.691Z,40.39
2022-09-23T05:14:27.228Z,40.38
2022-09-23T05:14:48.880Z,40.20
2022-09-23T05:15:10.461Z,40.46
2022-09-23T05:15:32.057Z,40.43
2022-09-23T05:15:59.205Z,40.52
2022-09-23T05:16:23.088Z,40.24
2022-09-23T05:16:45.700Z,40.22
2022-09-23T05:17:07.368Z,40.22
2022-09-23T05:17:31.125Z,40.27
2022-09-23T05:17:58.287Z,40.04
2022-09-23T05:18:20.916Z,39.97
2022-09-23T05:18:44.061Z,40.02
2022-09-23T05:19:07.030Z,39.84
2022-09-23T05:19:28.690Z,40.20
2022-09-23T05:19:50.720Z,40.07
2022-09-23T05:20:13.498Z,40.34
2022-09-23T05:20:36.159Z,40.21
2022-09-23T05:20:57.854Z,40.15
2022-09-23T05:21:20.908Z,40.15
2022-09-23T05:21:43.456Z,40.37
2022-09-23T05:22:06.130Z,40.54
2022-09-23T05:22:29.772Z,40.06
2022-09-23T05:22:52.699Z,40.42
2022-09-23T05:23:14.503Z,40.31
2022-09-23T05:23:36.761Z,40.10
2022-09-23T05:24:00.462Z,40.07
2022-09-23T05:24:24.381Z,40.25
2022-09-23T05:24:46.100Z,40.44
2022-09-23T05:25:09.494Z,40.90
2022-09-23T05:25:34.057Z,40.92
2022-09-23T05:25:59.307Z,41.04
2022-09-23T05:26:24.059Z,40.61
2022-09-23T05:26:45.674Z,40.46